Time;durP1;ratioP1;P1;durP2;ratioP2;P2;SDS_P1;SDS_P2;PMS_P1;PMS_P2;Temp;Humidity;BMP_temperature;BMP_pressure;BME280_temperature;BME280_humidity;BME280_pressure;Samples;Min_cycle;Max_cycle;Signal;HPM_P1;HPM_P2
2022/12/21 00:01:16;;;;;;;9.90;4.30;;;;;;;12.07;100.00;100183.88;4940785;29;20035;-67
2022/12/21 00:03:43;;;;;;;8.68;4.55;;;;;;;12.02;100.00;100188.84;4939150;28;20071;-68
2022/12/21 00:06:10;;;;;;;9.95;4.57;;;;;;;12.01;100.00;100188.06;4953009;28;20528;-68
2022/12/21 00:08:38;;;;;;;10.70;4.97;;;;;;;12.03;100.00;100185.78;4953261;28;20118;-68
2022/12/21 00:11:04;;;;;;;10.75;5.28;;;;;;;11.91;100.00;100182.59;4945024;28;20038;-68
2022/12/21 00:13:31;;;;;;;8.38;4.18;;;;;;;12.00;100.00;100189.22;4948679;28;20054;-68
2022/12/21 00:16:01;;;;;;;8.63;4.70;;;;;;;11.98;100.00;100199.59;4949182;29;20031;-67
2022/12/21 00:18:29;;;;;;;8.25;4.10;;;;;;;12.02;100.00;100194.25;4951077;29;20086;-69
2022/12/21 00:21:00;;;;;;;7.32;3.90;;;;;;;11.95;100.00;100194.97;4942616;28;20444;-67
2022/12/21 00:23:26;;;;;;;8.85;4.50;;;;;;;11.99;100.00;100181.50;4941422;28;20031;-68
2022/12/21 00:25:52;;;;;;;8.65;3.78;;;;;;;11.99;100.00;100187.69;4947535;28;20041;-68
2022/12/21 00:28:17;;;;;;;10.02;4.32;;;;;;;11.92;100.00;100192.25;4933063;28;20039;-67
2022/12/21 00:30:43;;;;;;;6.88;3.85;;;;;;;11.89;100.00;100182.97;4948432;28;20115;-68
2022/12/21 00:33:08;;;;;;;8.07;4.32;;;;;;;11.91;100.00;100182.59;4965305;28;20038;-68
2022/12/21 00:35:33;;;;;;;10.38;5.10;;;;;;;11.95;100.00;100194.97;4951619;28;20035;-67
2022/12/21 00:37:59;;;;;;;9.30;4.40;;;;;;;12.00;100.00;100189.22;4950987;29;20040;-68
2022/12/21 00:40:25;;;;;;;8.10;4.50;;;;;;;11.97;100.00;100195.38;4949995;28;20094;-68
2022/12/21 00:42:51;;;;;;;8.20;3.88;;;;;;;11.91;100.00;100191.47;4949878;29;20039;-69
2022/12/21 00:45:16;;;;;;;7.28;3.92;;;;;;;11.95;100.00;100178.00;4951704;28;20043;-68
2022/12/21 00:47:42;;;;;;;5.70;3.60;;;;;;;12.00;100.00;100193.84;4949260;28;20086;-68
2022/12/21 00:50:08;;;;;;;8.60;4.32;;;;;;;11.94;100.00;100193.44;4944983;28;20031;-68
2022/12/21 00:52:33;;;;;;;5.75;3.72;;;;;;;11.88;100.00;100202.25;4948607;28;20039;-68
2022/12/21 00:54:59;;;;;;;9.02;4.35;;;;;;;11.91;100.00;100198.78;4954129;29;20032;-68
2022/12/21 00:57:24;;;;;;;11.23;4.97;;;;;;;11.88;100.00;100194.16;4954760;28;20460;-69
2022/12/21 00:59:50;;;;;;;7.68;4.25;;;;;;;11.88;100.00;100200.31;4953132;28;20031;-67
2022/12/21 01:02:15;;;;;;;9.38;4.28;;;;;;;11.91;100.00;100207.66;4954862;29;20047;-68
2022/12/21 01:04:42;;;;;;;8.68;4.50;;;;;;;11.77;100.00;100207.53;4954965;28;20031;-68
2022/12/21 01:07:07;;;;;;;8.27;4.05;;;;;;;11.78;100.00;100206.41;4955287;28;20019;-68
2022/12/21 01:09:32;;;;;;;8.73;4.47;;;;;;;11.82;100.00;100206.44;4952442;28;20114;-68
2022/12/21 01:11:58;;;;;;;7.13;3.83;;;;;;;11.84;100.00;100215.72;4953445;29;20567;-68
2022/12/21 01:14:23;;;;;;;8.23;4.05;;;;;;;11.92;100.00;100217.31;4948546;28;20154;-68
2022/12/21 01:16:49;;;;;;;9.40;3.80;;;;;;;11.93;100.00;100208.06;4954583;28;20424;-67
2022/12/21 01:19:14;;;;;;;7.68;4.07;;;;;;;11.96;100.00;100210.03;4953676;29;20078;-68
2022/12/21 01:21:40;;;;;;;7.15;3.45;;;;;;;11.94;100.00;100209.63;4953125;28;20043;-68
2022/12/21 01:24:06;;;;;;;8.80;3.92;;;;;;;11.96;100.00;100212.72;4952166;28;20035;-68
2022/12/21 01:26:32;;;;;;;8.73;3.85;;;;;;;11.97;100.00;100219.66;4933376;29;20397;-68
2022/12/21 01:28:57;;;;;;;8.60;3.67;;;;;;;12.01;100.00;100225.84;4953736;29;20115;-68
2022/12/21 01:31:23;;;;;;;8.45;4.05;;;;;;;12.01;100.00;100236.66;4951718;28;20039;-68
2022/12/21 01:33:49;;;;;;;6.55;4.07;;;;;;;12.04;100.00;100225.09;4953861;28;20043;-68
2022/12/21 01:36:16;;;;;;;7.78;3.85;;;;;;;11.98;100.00;100231.22;4952806;28;20346;-68
2022/12/21 01:38:43;;;;;;;7.18;3.97;;;;;;;11.99;100.00;100228.16;4952987;28;20086;-67
2022/12/21 01:41:18;;;;;;;8.43;3.92;;;;;;;12.03;100.00;100238.97;4927615;28;20031;-66
2022/12/21 01:43:48;;;;;;;7.03;3.53;;;;;;;11.98;100.00;100229.28;4948107;28;20031;-66
2022/12/21 01:46:42;;;;;;;9.52;4.85;;;;;;;11.96;100.00;100220.03;4953556;28;20031;-66
2022/12/21 01:49:17;;;;;;;7.35;3.50;;;;;;;11.99;100.00;100232.78;4950439;29;20057;-68
2022/12/21 01:51:48;;;;;;;6.28;3.80;;;;;;;12.02;100.00;100226.63;4952148;28;20037;-68
2022/12/21 01:54:22;;;;;;;6.63;3.72;;;;;;;12.04;100.00;100219.69;4939213;28;20095;-68
2022/12/21 01:56:51;;;;;;;8.73;4.38;;;;;;;12.04;100.00;100218.94;4950826;29;20046;-68
2022/12/21 01:59:23;;;;;;;7.22;3.85;;;;;;;11.98;100.00;100226.59;4967477;28;20023;-68
2022/12/21 02:01:50;;;;;;;9.60;3.95;;;;;;;11.96;100.00;100222.72;4951118;28;20053;-68
2022/12/21 02:04:16;;;;;;;5.97;3.47;;;;;;;11.99;100.00;100222.75;4947919;29;20090;-67
2022/12/21 02:06:50;;;;;;;8.15;3.90;;;;;;;11.98;100.00;100221.19;4951730;29;20035;-68
2022/12/21 02:09:17;;;;;;;8.48;3.30;;;;;;;11.99;100.00;100222.75;4952039;28;20477;-68
2022/12/21 02:11:43;;;;;;;8.50;4.00;;;;;;;12.01;100.00;100220.47;4942615;28;20078;-68
2022/12/21 02:14:14;;;;;;;7.60;3.83;;;;;;;11.92;100.00;100216.53;4946878;28;20102;-68
2022/12/21 02:16:55;;;;;;;7.78;4.25;;;;;;;11.93;100.00;100205.38;4951144;29;20129;-67
2022/12/21 02:19:38;;;;;;;8.37;4.03;;;;;;;11.94;100.00;100200.75;4951581;29;20043;-68
2022/12/21 02:22:56;;;;;;;7.82;3.85;;;;;;;11.94;100.00;100204.22;4938377;28;20295;-68
2022/12/21 02:25:54;;;;;;;8.48;4.05;;;;;;;11.95;100.00;100207.69;4879191;29;20051;-67
2022/12/21 02:28:30;;;;;;;7.88;3.63;;;;;;;11.79;100.00;100213.34;4950057;28;20043;-68
2022/12/21 02:31:14;;;;;;;6.00;3.83;;;;;;;11.81;100.00;100200.25;4948294;29;20065;-68
2022/12/21 02:33:52;;;;;;;8.48;3.88;;;;;;;11.74;100.00;100208.28;4952765;29;20248;-68
2022/12/21 02:36:28;;;;;;;6.82;3.88;;;;;;;11.81;100.00;100211.03;4949711;28;20031;-67
2022/12/21 02:39:03;;;;;;;8.48;3.63;;;;;;;11.85;100.00;100211.06;4952133;29;20447;-68
2022/12/21 02:41:48;;;;;;;9.48;4.00;;;;;;;11.86;100.00;100210.72;4950948;29;20031;-68
2022/12/21 02:44:42;;;;;;;10.82;4.25;;;;;;;11.88;100.00;100210.34;4942926;29;20098;-67
2022/12/21 02:47:37;;;;;;;9.88;4.15;;;;;;;11.79;100.00;100224.13;4949490;29;20527;-68
2022/12/21 02:50:11;;;;;;;7.20;3.47;;;;;;;11.79;100.00;100213.34;4959371;28;20046;-68
2022/12/21 02:52:50;;;;;;;8.82;4.18;;;;;;;11.73;100.00;100214.81;4951419;29;20031;-68
2022/12/21 02:55:15;;;;;;;8.68;4.05;;;;;;;11.70;100.00;100210.19;4938040;28;20062;-68
2022/12/21 02:57:43;;;;;;;9.85;4.45;;;;;;;11.73;100.00;100209.44;4948957;28;20027;-68
2022/12/21 03:00:16;;;;;;;10.75;3.60;;;;;;;11.76;100.00;100222.19;4947647;28;20484;-68
2022/12/21 03:06:28;;;;;;;8.13;3.67;;;;;;;11.78;100.00;100223.38;4951281;29;20062;-68
2022/12/21 03:09:19;;;;;;;8.82;4.43;;;;;;;11.81;100.00;100221.09;4946210;28;20050;-68
2022/12/21 03:11:56;;;;;;;8.15;3.75;;;;;;;11.83;100.00;100235.72;4950649;29;20046;-68
2022/12/21 03:14:30;;;;;;;10.05;3.75;;;;;;;11.76;100.00;100224.88;4950609;28;20109;-68
2022/12/21 03:17:04;;;;;;;8.00;3.33;;;;;;;11.77;100.00;100221.03;4946518;28;20535;-68
2022/12/21 03:19:38;;;;;;;10.60;4.47;;;;;;;11.80;100.00;100220.31;4951403;29;20113;-68
2022/12/21 03:22:15;;;;;;;8.57;3.45;;;;;;;11.80;100.00;100223.00;4950244;29;20071;-68
2022/12/21 03:24:40;;;;;;;9.32;4.32;;;;;;;11.80;100.00;100223.00;4950170;28;20125;-68
2022/12/21 03:27:13;;;;;;;8.40;3.75;;;;;;;11.76;100.00;100224.88;4944763;28;20084;-68
2022/12/21 03:29:48;;;;;;;11.77;3.88;;;;;;;11.78;100.00;100225.28;4953540;28;20082;-67
2022/12/21 03:32:20;;;;;;;8.50;3.85;;;;;;;11.77;100.00;100232.59;4951470;28;20039;-68
2022/12/21 03:34:50;;;;;;;10.82;4.15;;;;;;;11.72;100.00;100226.78;4951941;28;20126;-68
2022/12/21 03:37:23;;;;;;;14.75;4.65;;;;;;;11.72;100.00;100214.06;4947343;28;20036;-67
2022/12/21 03:40:02;;;;;;;9.23;3.40;;;;;;;11.68;100.00;100218.66;4952089;28;20100;-68
2022/12/21 03:42:33;;;;;;;9.73;3.22;;;;;;;11.64;100.00;100215.13;4942502;28;20039;-68
2022/12/21 03:45:06;;;;;;;10.73;4.05;;;;;;;11.68;100.00;100209.78;4950980;28;20066;-68
2022/12/21 03:48:02;;;;;;;9.77;3.78;;;;;;;11.72;100.00;100208.69;4944423;28;20027;-68
2022/12/21 03:50:33;;;;;;;6.93;3.13;;;;;;;11.73;100.00;100226.41;4929454;28;20035;-67
2022/12/21 03:53:29;;;;;;;6.47;2.65;;;;;;;11.78;100.00;100222.59;4937525;28;20034;-68
2022/12/21 03:55:59;;;;;;;7.25;2.60;;;;;;;11.66;100.00;100218.25;4944152;28;21606;-68
2022/12/21 03:58:26;;;;;;;6.85;2.88;;;;;;;11.66;100.00;100217.47;4951876;28;20047;-68
2022/12/21 04:01:18;;;;;;;4.80;2.38;;;;;;;11.63;100.00;100220.91;4950949;28;20031;-67
2022/12/21 04:03:49;;;;;;;8.18;3.83;;;;;;;11.66;100.00;100215.56;4913580;28;20053;-67
2022/12/21 04:06:21;;;;;;;6.95;3.25;;;;;;;11.68;100.00;100221.34;4951806;28;20074;-67
2022/12/21 04:08:48;;;;;;;7.22;3.45;;;;;;;11.73;100.00;100220.22;4940459;28;20039;-68
2022/12/21 04:14:01;;;;;;;8.70;3.88;;;;;;;11.72;100.00;100213.28;4949506;29;20034;-68
2022/12/21 04:16:27;;;;;;;8.98;3.95;;;;;;;11.67;100.00;100219.03;4949642;28;20106;-67
2022/12/21 04:21:37;;;;;;;9.25;3.70;;;;;;;11.70;100.00;100226.38;4950987;28;20039;-68
2022/12/21 04:29:53;;;;;;;7.63;3.17;;;;;;;11.61;100.00;100232.03;4898670;29;20041;-67
2022/12/21 04:32:19;;;;;;;4.57;2.55;;;;;;;11.55;100.00;100230.06;4932717;28;20098;-67
2022/12/21 04:34:44;;;;;;;6.57;2.95;;;;;;;11.58;100.00;100222.00;4949158;29;20058;-68
2022/12/21 04:39:53;;;;;;;7.88;3.28;;;;;;;11.50;100.00;100238.47;4943364;29;20038;-68
2022/12/21 04:42:19;;;;;;;6.72;3.38;;;;;;;11.56;100.00;100227.00;4953029;28;20393;-67
2022/12/21 04:44:44;;;;;;;7.53;3.03;;;;;;;11.56;100.00;100218.13;4952991;28;20452;-67
2022/12/21 04:47:11;;;;;;;5.57;2.40;;;;;;;11.59;100.00;100222.78;4953999;28;20074;-67
2022/12/21 04:49:36;;;;;;;6.03;2.95;;;;;;;11.55;100.00;100220.06;4954933;28;20062;-67
2022/12/21 04:52:02;;;;;;;6.72;3.28;;;;;;;11.59;100.00;100214.69;4946942;28;20062;-68
2022/12/21 04:54:27;;;;;;;5.32;2.72;;;;;;;11.50;100.00;100211.50;4944689;28;20099;-68
2022/12/21 04:56:53;;;;;;;4.45;2.58;;;;;;;11.55;100.00;100219.28;4937707;28;20042;-68
2022/12/21 04:59:18;;;;;;;5.55;2.67;;;;;;;11.48;100.00;100222.69;4934525;29;20037;-67
2022/12/21 05:01:44;;;;;;;5.00;2.45;;;;;;;11.34;100.00;100219.84;4933743;29;20452;-67
2022/12/21 05:04:10;;;;;;;4.60;2.50;;;;;;;11.37;100.00;100221.81;4915036;28;20040;-67
2022/12/21 05:06:35;;;;;;;4.07;2.42;;;;;;;11.37;100.00;100224.50;4940238;29;20078;-68
2022/12/21 05:09:01;;;;;;;5.18;2.08;;;;;;;11.37;100.00;100221.03;4936510;29;20036;-68
2022/12/21 05:11:27;;;;;;;6.10;2.78;;;;;;;11.32;100.00;100226.75;4937028;28;20043;-68
2022/12/21 05:13:52;;;;;;;3.53;2.10;;;;;;;11.19;100.00;100228.16;4936413;29;20035;-68
2022/12/21 05:16:23;;;;;;;2.83;1.98;;;;;;;11.15;100.00;100221.97;4937739;29;20031;-67
2022/12/21 05:18:50;;;;;;;4.30;2.42;;;;;;;11.19;100.00;100220.84;4956913;28;20103;-67
2022/12/21 05:21:16;;;;;;;4.10;2.22;;;;;;;11.29;100.00;100232.88;4947156;28;20032;-68
2022/12/21 05:23:42;;;;;;;2.55;1.95;;;;;;;11.31;100.00;100230.59;4940611;28;20062;-68
2022/12/21 05:26:08;;;;;;;6.70;2.65;;;;;;;11.37;100.00;100215.63;4940761;28;20036;-68
2022/12/21 05:28:54;;;;;;;4.70;2.63;;;;;;;11.34;100.00;100208.28;4939673;28;20030;-67
2022/12/21 05:31:20;;;;;;;4.13;2.17;;;;;;;11.28;100.00;100220.56;4911179;29;20118;-68
2022/12/21 05:33:46;;;;;;;6.68;2.78;;;;;;;11.30;100.00;100229.81;4912151;29;20039;-67
2022/12/21 05:36:13;;;;;;;7.43;2.90;;;;;;;11.17;100.00;100222.38;4908787;29;20072;-67
2022/12/21 05:38:39;;;;;;;5.88;2.90;;;;;;;11.21;100.00;100228.53;4909033;29;20044;-68
2022/12/21 05:41:05;;;;;;;8.40;3.90;;;;;;;11.19;100.00;100225.47;4915254;29;20048;-68
2022/12/21 05:43:30;;;;;;;10.02;4.28;;;;;;;11.16;100.00;100226.19;4919145;29;20160;-67
2022/12/21 05:46:01;;;;;;;8.60;3.95;;;;;;;11.22;100.00;100222.03;4915127;29;20474;-68
2022/12/21 05:48:27;;;;;;;8.75;4.05;;;;;;;11.16;100.00;100223.50;4915893;29;20052;-68
2022/12/21 05:50:52;;;;;;;9.18;4.25;;;;;;;11.20;100.00;100224.31;4904361;29;20038;-68
2022/12/21 05:53:18;;;;;;;7.32;3.67;;;;;;;11.21;100.00;100226.63;4907518;29;20059;-68
2022/12/21 05:55:47;;;;;;;10.52;4.30;;;;;;;11.23;100.00;100226.25;4915562;29;20063;-68
2022/12/21 05:58:12;;;;;;;9.23;4.53;;;;;;;11.24;100.00;100219.75;4908738;29;20095;-68
2022/12/21 06:00:38;;;;;;;10.32;4.88;;;;;;;11.24;100.00;100217.03;4910028;29;20047;-68
2022/12/21 06:03:04;;;;;;;9.02;3.97;;;;;;;11.18;100.00;100216.59;4913516;29;20056;-68
2022/12/21 06:05:33;;;;;;;8.48;3.95;;;;;;;11.20;100.00;100205.44;4909101;29;20036;-68
2022/12/21 06:07:59;;;;;;;10.90;4.63;;;;;;;11.23;100.00;100215.47;4936000;28;20051;-68
2022/12/21 06:10:24;;;;;;;12.38;4.78;;;;;;;11.21;100.00;100220.47;4942866;28;20046;-68
2022/12/21 06:12:50;;;;;;;8.25;4.15;;;;;;;11.20;100.00;100227.00;4957846;28;20039;-67
2022/12/21 06:15:15;;;;;;;11.90;4.53;;;;;;;11.23;100.00;100223.56;4942390;28;20125;-68
2022/12/21 06:17:41;;;;;;;6.90;3.55;;;;;;;11.21;100.00;100223.16;4941553;28;20024;-68
2022/12/21 06:20:07;;;;;;;7.07;4.18;;;;;;;11.17;100.00;100219.69;4955884;28;20117;-68
2022/12/21 06:22:34;;;;;;;7.63;4.07;;;;;;;11.19;100.00;100228.16;4951544;28;20038;-68
2022/12/21 06:25:00;;;;;;;6.32;3.15;;;;;;;11.16;100.00;100216.19;4948179;29;20050;-68
2022/12/21 06:27:25;;;;;;;8.93;4.25;;;;;;;11.14;100.00;100226.56;4948156;29;20369;-67
2022/12/21 06:29:51;;;;;;;12.25;4.10;;;;;;;11.20;100.00;100227.00;4936292;28;20035;-67
2022/12/21 06:32:16;;;;;;;11.65;4.10;;;;;;;11.21;100.00;100232.03;4951743;28;20392;-68
2022/12/21 06:34:41;;;;;;;10.02;4.53;;;;;;;11.19;100.00;100223.53;4951337;29;20689;-67
2022/12/21 06:37:09;;;;;;;10.52;4.55;;;;;;;11.20;100.00;100222.41;4942582;28;20622;-67
2022/12/21 06:39:35;;;;;;;7.53;3.97;;;;;;;11.23;100.00;100231.66;4932947;29;20425;-67
2022/12/21 06:42:01;;;;;;;12.38;3.45;;;;;;;11.20;100.00;100224.31;4948717;29;20035;-67
2022/12/21 06:44:28;;;;;;;8.23;3.38;;;;;;;11.17;100.00;100235.84;4943114;28;20473;-67
2022/12/21 06:46:53;;;;;;;10.50;4.35;;;;;;;11.16;100.00;100235.06;4945367;29;20028;-68
2022/12/21 06:49:19;;;;;;;11.55;3.53;;;;;;;11.12;100.00;100241.53;4936276;29;20447;-68
2022/12/21 06:51:46;;;;;;;10.18;4.40;;;;;;;11.06;100.00;100232.25;4943215;29;20170;-68
2022/12/21 06:54:14;;;;;;;7.80;3.90;;;;;;;11.06;100.00;100240.31;4949831;28;20130;-67
2022/12/21 06:56:39;;;;;;;10.82;4.25;;;;;;;11.07;100.00;100239.94;4947429;29;20129;-67
2022/12/21 06:59:05;;;;;;;9.35;3.40;;;;;;;11.08;100.00;100246.91;4943809;28;20110;-68
2022/12/21 07:01:35;;;;;;;5.25;3.00;;;;;;;11.10;100.00;100246.53;4935460;28;20039;-68
2022/12/21 07:04:01;;;;;;;6.30;3.15;;;;;;;11.07;100.00;100258.06;4939135;29;20035;-68
2022/12/21 07:06:29;;;;;;;9.93;3.20;;;;;;;11.07;100.00;100256.13;4952917;29;20039;-67
2022/12/21 07:08:55;;;;;;;7.20;3.38;;;;;;;11.03;100.00;100257.22;4937622;28;20035;-67
2022/12/21 07:11:29;;;;;;;6.43;3.28;;;;;;;11.02;100.00;100261.06;4954141;29;20030;-68
2022/12/21 07:13:59;;;;;;;5.85;2.85;;;;;;;10.89;100.00;100253.22;4952901;29;20042;-68
2022/12/21 07:16:25;;;;;;;6.18;3.10;;;;;;;10.94;100.00;100260.19;4958614;28;20047;-65
2022/12/21 07:18:53;;;;;;;4.50;3.13;;;;;;;10.95;100.00;100259.06;4952723;28;20058;-67
2022/12/21 07:21:22;;;;;;;4.90;2.85;;;;;;;11.00;100.00;100269.50;4959246;29;20035;-68
2022/12/21 07:23:49;;;;;;;4.65;2.67;;;;;;;10.99;100.00;100264.50;4937639;28;20415;-67
2022/12/21 07:26:17;;;;;;;6.32;3.10;;;;;;;10.88;100.00;100267.81;4951784;28;20035;-67
2022/12/21 07:28:47;;;;;;;5.13;2.33;;;;;;;10.88;100.00;100264.34;4953258;28;20500;-68
2022/12/21 07:31:16;;;;;;;5.20;2.85;;;;;;;10.81;100.00;100261.56;4964904;28;20035;-67
2022/12/21 07:33:42;;;;;;;4.88;3.08;;;;;;;10.76;100.00;100267.28;4941553;28;20031;-67
2022/12/21 07:36:09;;;;;;;6.00;2.75;;;;;;;10.73;100.00;100271.47;4937045;29;20035;-65
2022/12/21 07:38:36;;;;;;;4.43;2.47;;;;;;;10.76;100.00;100270.75;4950110;29;20039;-68
2022/12/21 07:41:04;;;;;;;4.25;2.53;;;;;;;10.74;100.00;100278.41;4945169;28;20035;-68
2022/12/21 07:43:30;;;;;;;5.30;3.15;;;;;;;10.82;100.00;100279.28;4944294;29;20035;-66
2022/12/21 07:46:28;;;;;;;6.45;3.45;;;;;;;10.69;100.00;100264.50;4924116;28;20549;-67
2022/12/21 07:48:55;;;;;;;8.32;3.22;;;;;;;10.64;100.00;100260.22;4938214;28;20035;-66
2022/12/21 07:51:21;;;;;;;6.78;3.08;;;;;;;10.62;100.00;100253.63;4935922;28;20031;-67
2022/12/21 07:53:46;;;;;;;5.82;2.67;;;;;;;10.64;100.00;100249.44;4945377;28;20396;-67
2022/12/21 07:56:15;;;;;;;5.75;2.65;;;;;;;10.58;100.00;100258.97;4947910;28;20044;-68
2022/12/21 07:58:41;;;;;;;5.00;2.92;;;;;;;10.69;100.00;100253.72;4939080;28;20549;-66
2022/12/21 08:01:11;;;;;;;7.93;3.35;;;;;;;10.66;100.00;100260.63;4933828;29;20039;-66
2022/12/21 08:03:38;;;;;;;5.05;2.95;;;;;;;10.67;100.00;100261.38;4948892;28;20067;-69
2022/12/21 08:06:04;;;;;;;4.75;2.90;;;;;;;10.67;100.00;100264.84;4950938;28;20027;-67
2022/12/21 08:08:30;;;;;;;13.27;4.93;;;;;;;10.54;100.00;100270.81;4935354;28;20044;-67
2022/12/21 08:10:59;;;;;;;8.65;3.80;;;;;;;10.58;100.00;100277.81;4936299;28;20032;-66
2022/12/21 08:13:33;;;;;;;8.82;4.70;;;;;;;10.49;100.00;100274.59;4962145;28;20028;-68
2022/12/21 08:16:05;;;;;;;11.68;4.25;;;;;;;10.55;100.00;100285.84;4937216;28;20035;-67
2022/12/21 08:18:32;;;;;;;;;;;;;;;10.48;100.00;100274.97;4936027;28;20521;-69
2022/12/21 08:20:58;;;;;;;9.60;4.25;;;;;;;10.45;100.00;100281.84;4935166;28;19923;-66
2022/12/21 08:23:24;;;;;;;10.00;3.53;;;;;;;10.54;100.00;100279.69;4938757;28;20035;-68
2022/12/21 08:25:50;;;;;;;9.75;4.28;;;;;;;10.56;100.00;100276.63;4950450;28;20028;-69
2022/12/21 08:28:15;;;;;;;6.22;3.47;;;;;;;10.54;100.00;100277.00;4937208;28;20035;-67
2022/12/21 08:30:44;;;;;;;7.78;3.22;;;;;;;10.59;100.00;100271.28;4939953;28;20528;-68
2022/12/21 08:33:10;;;;;;;11.27;5.30;;;;;;;10.51;100.00;100279.66;4942659;28;20032;-69
2022/12/21 08:35:36;;;;;;;14.32;5.00;;;;;;;10.52;100.00;100265.81;4942687;28;20046;-65
2022/12/21 08:38:02;;;;;;;14.02;4.45;;;;;;;10.65;100.00;100266.34;4943063;28;20040;-68
2022/12/21 08:40:31;;;;;;;12.85;5.30;;;;;;;10.63;100.00;100274.81;4937346;28;20135;-67
2022/12/21 08:42:57;;;;;;;14.65;5.35;;;;;;;10.61;100.00;100274.38;4939988;28;20035;-66
2022/12/21 08:45:22;;;;;;;12.10;4.72;;;;;;;10.65;100.00;100269.84;4948574;28;20037;-68
2022/12/21 08:47:48;;;;;;;10.52;4.30;;;;;;;10.58;100.00;100255.50;4941586;28;20545;-68
2022/12/21 08:50:17;;;;;;;10.50;4.25;;;;;;;10.50;100.00;100268.09;4947099;28;20035;-68
2022/12/21 08:52:42;;;;;;;9.10;4.30;;;;;;;10.44;100.00;100279.53;4931627;28;20094;-68
2022/12/21 08:55:08;;;;;;;6.07;3.67;;;;;;;10.38;100.00;100270.97;4935067;28;20046;-68
2022/12/21 08:57:33;;;;;;;9.38;4.18;;;;;;;10.37;100.00;100264.06;4930879;28;20452;-68
2022/12/21 08:59:59;;;;;;;7.88;3.38;;;;;;;10.37;100.00;100258.69;4928154;28;20047;-68
2022/12/21 09:02:25;;;;;;;5.63;3.42;;;;;;;10.42;100.00;100258.34;4930194;28;20100;-68
2022/12/21 09:04:56;;;;;;;11.23;4.38;;;;;;;10.44;100.00;100252.59;4937250;28;20039;-67
2022/12/21 09:07:24;;;;;;;10.75;3.88;;;;;;;10.43;100.00;100256.44;4947428;28;20027;-66
2022/12/21 09:09:52;;;;;;;10.40;4.90;;;;;;;10.43;100.00;100264.53;4945252;28;20055;-66
2022/12/21 09:12:18;;;;;;;10.70;5.07;;;;;;;10.30;100.00;100269.31;4948478;28;20054;-66
2022/12/21 09:14:45;;;;;;;8.10;3.35;;;;;;;10.36;100.00;100275.94;4953288;28;20866;-68
2022/12/21 09:17:11;;;;;;;10.02;4.07;;;;;;;10.36;100.00;100277.84;4949232;28;20031;-68
2022/12/21 09:19:39;;;;;;;10.55;4.57;;;;;;;10.46;100.00;100278.03;4949345;28;20038;-71
2022/12/21 09:22:06;;;;;;;9.15;3.33;;;;;;;10.45;100.00;100279.16;4948571;28;20050;-67
2022/12/21 09:24:33;;;;;;;9.75;4.65;;;;;;;10.48;100.00;100281.13;4952677;28;20035;-67
2022/12/21 09:27:03;;;;;;;8.70;4.40;;;;;;;10.52;100.00;100275.78;4950424;28;20041;-66
2022/12/21 09:29:29;;;;;;;13.10;5.00;;;;;;;10.46;100.00;100291.50;4952745;28;20055;-68
2022/12/21 09:31:56;;;;;;;10.20;4.78;;;;;;;10.59;100.00;100284.75;4949037;28;20035;-68
2022/12/21 09:34:25;;;;;;;6.95;3.92;;;;;;;10.59;100.00;100281.28;4965393;28;20042;-67
2022/12/21 09:36:52;;;;;;;16.10;4.95;;;;;;;10.50;100.00;100300.41;4957362;28;20127;-67
2022/12/21 09:39:18;;;;;;;9.43;3.60;;;;;;;10.55;100.00;100292.00;4948801;28;20072;-68
2022/12/21 09:42:20;;;;;;;13.95;4.82;;;;;;;10.52;100.00;100292.72;4952099;28;20123;-68
2022/12/21 09:45:00;;;;;;;14.27;4.65;;;;;;;10.59;100.00;100294.72;4937847;28;20039;-67
2022/12/21 09:47:47;;;;;;;8.55;4.13;;;;;;;10.56;100.00;100298.16;4958419;28;20452;-66
2022/12/21 09:50:53;;;;;;;8.32;3.50;;;;;;;10.52;100.00;100300.81;4952865;28;20035;-66
2022/12/21 09:53:35;;;;;;;11.15;3.67;;;;;;;10.61;100.00;100300.53;4927971;29;20112;-69
2022/12/21 09:56:04;;;;;;;10.70;4.53;;;;;;;10.46;100.00;100290.72;4954056;28;20412;-71
2022/12/21 09:58:49;;;;;;;13.50;5.30;;;;;;;10.49;100.00;100296.13;4953896;28;20036;-69
2022/12/21 10:01:37;;;;;;;11.02;4.28;;;;;;;10.59;100.00;100283.97;4952625;29;20044;-68
2022/12/21 10:04:25;;;;;;;12.75;4.90;;;;;;;10.62;100.00;100286.72;4949458;28;20058;-67
2022/12/21 10:07:23;;;;;;;15.52;4.78;;;;;;;10.59;100.00;100286.66;4944409;28;20032;-66
2022/12/21 10:10:10;;;;;;;8.27;3.75;;;;;;;10.62;100.00;100284.03;4929158;28;20519;-66
2022/12/21 10:12:48;;;;;;;11.85;3.78;;;;;;;10.69;100.00;100281.44;4943942;28;20032;-68
2022/12/21 10:15:26;;;;;;;12.40;4.70;;;;;;;10.74;100.00;100277.66;4941010;28;20027;-66
2022/12/21 10:18:11;;;;;;;12.60;4.93;;;;;;;10.71;100.00;100273.75;4948717;28;20039;-67
2022/12/21 10:20:52;;;;;;;10.65;4.68;;;;;;;10.74;100.00;100273.03;4944166;28;20031;-67
2022/12/21 10:23:26;;;;;;;;;;;;;;;10.78;100.00;100265.00;4947153;28;20114;-67
2022/12/21 10:25:57;;;;;;;9.90;4.63;;;;;;;10.88;100.00;100258.97;4941335;28;19923;-66
2022/12/21 10:28:22;;;;;;;;;;;;;;;10.73;100.00;100254.53;4942998;28;20177;-68
2022/12/21 10:30:56;;;;;;;13.07;4.88;;;;;;;10.68;100.00;100252.94;4946803;28;19988;-70
2022/12/21 10:33:23;;;;;;;12.95;5.43;;;;;;;10.75;100.00;100249.56;4946980;28;20481;-67
2022/12/21 10:35:53;;;;;;;17.10;5.85;;;;;;;10.86;100.00;100235.09;4926893;29;20619;-66
2022/12/21 10:38:19;;;;;;;12.70;4.95;;;;;;;10.84;100.00;100234.69;4950820;29;20031;-66
2022/12/21 10:40:50;;;;;;;18.70;6.75;;;;;;;10.80;100.00;100244.63;4943581;28;20401;-65
2022/12/21 10:43:16;;;;;;;11.20;4.78;;;;;;;10.79;100.00;100248.47;4948013;28;20035;-66
2022/12/21 10:45:42;;;;;;;19.65;5.10;;;;;;;10.86;100.00;100242.38;4942734;28;20103;-66
2022/12/21 10:48:07;;;;;;;14.57;5.90;;;;;;;10.82;100.00;100250.44;4949270;29;20092;-68
2022/12/21 10:50:39;;;;;;;18.52;4.88;;;;;;;10.86;100.00;100245.88;4953540;29;20110;-66
2022/12/21 10:53:27;;;;;;;18.48;5.05;;;;;;;10.94;100.00;100240.59;4942356;29;20123;-67
2022/12/21 10:55:59;;;;;;;16.30;5.07;;;;;;;11.01;100.00;100241.44;4952251;29;20031;-66
2022/12/21 10:58:31;;;;;;;17.05;5.15;;;;;;;11.03;100.00;100227.59;4947297;29;20047;-66
2022/12/21 11:01:05;;;;;;;16.73;5.88;;;;;;;11.06;100.00;100227.63;4945440;28;20045;-67
2022/12/21 11:03:38;;;;;;;16.92;4.95;;;;;;;11.06;100.00;100229.53;4941391;29;20035;-67
2022/12/21 11:06:13;;;;;;;13.75;4.93;;;;;;;11.05;100.00;100238.78;4945606;28;20035;-66
2022/12/21 11:08:49;;;;;;;16.27;6.22;;;;;;;10.98;100.00;100238.69;4945653;28;20050;-68
2022/12/21 11:11:37;;;;;;;18.92;7.53;;;;;;;10.92;100.00;100240.19;4945440;28;20430;-67
2022/12/21 11:14:14;;;;;;;19.67;5.78;;;;;;;10.93;100.00;100226.34;4957660;28;20035;-66
2022/12/21 11:16:41;;;;;;;14.85;5.57;;;;;;;10.90;100.00;100227.03;4940947;28;20113;-66
2022/12/21 11:19:16;;;;;;;15.70;5.38;;;;;;;10.94;100.00;100222.47;4960632;28;20023;-69
2022/12/21 11:21:51;;;;;;;21.42;7.10;;;;;;;11.00;100.00;100215.63;4940948;28;20429;-66
2022/12/21 11:24:18;;;;;;;22.35;9.18;;;;;;;11.12;100.00;100211.91;4943323;28;20039;-67
2022/12/21 11:27:00;;;;;;;14.85;5.90;;;;;;;11.05;100.00;100212.63;4939996;28;20034;-69
2022/12/21 11:29:49;;;;;;;15.93;5.57;;;;;;;11.13;100.00;100206.13;4950663;28;20446;-66
2022/12/21 11:32:17;;;;;;;24.20;10.38;;;;;;;11.13;100.00;100213.47;4941350;28;20040;-69
2022/12/21 11:34:45;;;;;;;21.67;8.80;;;;;;;11.14;100.00;100215.00;4946418;29;20034;-65
2022/12/21 11:37:22;;;;;;;19.67;6.53;;;;;;;11.13;100.00;100214.22;4936841;28;20110;-65
2022/12/21 11:39:47;;;;;;;13.52;5.93;;;;;;;11.19;100.00;100218.13;4945452;28;20039;-65
2022/12/21 11:42:23;;;;;;;15.88;5.40;;;;;;;11.17;100.00;100206.19;4939184;28;20070;-67
2022/12/21 11:44:51;;;;;;;18.85;6.50;;;;;;;11.08;100.00;100192.22;4949184;28;20039;-66
2022/12/21 11:47:58;;;;;;;15.60;5.05;;;;;;;11.11;100.00;100204.97;4941592;28;20416;-66